Fairbanks, AK

2:08 PM AKDT on September 20, 2014 (GMT -0800)
Fairbanks International | Change Station
CLOSE
Current Station
Airport
Location: Fairbanks,
Elevation: 433 ft
Nearby Weather Stations

Elev 433 ft 64.80 °N, 147.88 °W | Updated 15 minutes ago

Light Rain
Light Rain Mist
49 °F
Feels Like 49 °F
N
0
Wind Variable Wind from North

Today
High -- | Low -- °F
--% Chance of Precip.
Yesterday
High -- | Low -- °F
Precip. -- in
7:28 AM 7:58 PM
Waning Crescent, 10% visible
Pressure 29.55 in
Visibility 6.0 miles
Clouds Few 500 ft
Mostly Cloudy 4300 ft
Overcast 5500 ft
Dew Point 46 °F
Humidity 90%
Rainfall 0.22 in
Snow Depth 1 in , 2 in , 0 in
UV 1 out of 12
Pollen Not available.
Air Quality Not available.
Flu Activity Not available.
METAR PAFA 202153Z 00000KT 6SM -RA BR FEW005 BKN043 OVC055 09/08 A2954 RMK AO2 SLP007 P0003 T00940078

More Conditions Fewer Conditions

Pressure 29.55 in
Visibility 6.0 miles
Clouds Few 500 ft
Mostly Cloudy 4300 ft
Overcast 5500 ft
Dew Point 46 °F
Humidity 90%
Rainfall 0.22 in
Snow Depth 1 in , 2 in , 0 in
UV 1 out of 12
Pollen Not available.
Air Quality Not available.
Flu Activity Not available.
METAR PAFA 202153Z 00000KT 6SM -RA BR FEW005 BKN043 OVC055 09/08 A2954 RMK AO2 SLP007 P0003 T00940078

More Conditions Fewer Conditions

10-Day Weather Forecast

Almanac

Astronomy

Sep. 20, 2014 Rise Set
Actual Time 7:28 AM AKDT 7:58 PM AKDT
Civil Twilight 6:38 AM AKDT 8:47 PM AKDT
Nautical Twilight 5:37 AM AKDT 9:48 PM AKDT
Astronomical Twilight 4:25 AM AKDT 10:59 PM AKDT
Moon 3:18 AM AKDT 6:52 PM AKDT
Length of Visible Light 14h 08m
Length of Day
12h 30m
Tomorrow will be 6m 38s shorter.
Waning Crescent, 10% of the Moon is Illuminated
Today
Waning Crescent
Sep 24
New
Oct 1
First Quarter
Oct 8
Full
Oct 15
Last Quarter

Today's Extremes

State Highs State Lows

Community

WunderPhotos

Upload Photos

1,754,966 photos uploaded!

WunderBlogs® & News

Nearby

Snow Depth

Station Depth Elevation
Munson Ridge 1 in 3100 ft
MF Bradley River 2 in 2300 ft
Upper Tsaina River 0 in 1750 ft
Coldfoot 1 in 1040 ft
Point Mackenzie 1 in 200 ft

Earthquake Activity

City Distance Mag. Time & Date
No recent earthquake activity has been reported nearby.
Minimum magnitude displayed is 2.5.

Coastal Water Temperatures

Place Temperature
No Stations Reporting

Nearby Weather Stations